createdAt,value
2023-05-12T00:00:56.734Z,14.62
2023-05-12T00:03:26.321Z,14.62
2023-05-12T00:05:54.552Z,14.62
2023-05-12T00:08:22.628Z,14.62
2023-05-12T00:10:50.989Z,14.61
2023-05-12T00:13:23.550Z,14.61
2023-05-12T00:15:52.448Z,14.63
2023-05-12T00:18:21.975Z,14.64
2023-05-12T00:20:50.080Z,14.62
2023-05-12T00:23:18.745Z,14.64
2023-05-12T00:25:46.901Z,14.63
2023-05-12T00:28:15.083Z,14.63
2023-05-12T00:30:43.344Z,14.62
2023-05-12T00:33:11.489Z,14.61
2023-05-12T00:35:40.930Z,14.58
2023-05-12T00:38:09.035Z,14.56
2023-05-12T00:40:37.176Z,14.54
2023-05-12T00:43:05.295Z,14.51
2023-05-12T00:45:33.462Z,14.50
2023-05-12T00:48:01.657Z,14.48
2023-05-12T00:50:29.793Z,14.46
2023-05-12T00:52:59.551Z,14.44
2023-05-12T00:55:27.798Z,14.45
2023-05-12T00:57:56.872Z,14.42
2023-05-12T01:00:24.950Z,14.40
2023-05-12T01:02:53.059Z,14.39
2023-05-12T01:05:21.289Z,14.35
2023-05-12T01:07:49.534Z,14.33
2023-05-12T01:10:20.442Z,14.32
2023-05-12T01:12:49.359Z,14.30
2023-05-12T01:15:18.400Z,14.30
2023-05-12T01:17:48.871Z,14.29
2023-05-12T01:20:18.814Z,14.28
2023-05-12T01:22:48.813Z,14.26
2023-05-12T01:25:18.043Z,14.24
2023-05-12T01:27:47.821Z,14.22
2023-05-12T01:30:18.383Z,14.22
2023-05-12T01:32:46.658Z,14.21
2023-05-12T01:35:14.713Z,14.20
2023-05-12T01:37:42.795Z,14.18
2023-05-12T01:40:11.369Z,14.18
2023-05-12T01:42:40.998Z,14.16
2023-05-12T01:45:11.779Z,14.16
2023-05-12T01:47:39.914Z,14.16
2023-05-12T01:50:08.350Z,14.13
2023-05-12T01:52:36.825Z,14.12
2023-05-12T01:55:05.593Z,14.11
2023-05-12T01:57:33.915Z,14.10
2023-05-12T02:00:02.004Z,14.10
2023-05-12T02:02:33.931Z,14.10
2023-05-12T02:05:02.077Z,14.10
2023-05-12T02:07:30.169Z,14.13
2023-05-12T02:09:58.510Z,14.13
2023-05-12T02:12:26.619Z,14.16
2023-05-12T02:14:54.742Z,14.18
2023-05-12T02:17:25.116Z,14.18
2023-05-12T02:19:54.771Z,14.19
2023-05-12T02:22:23.629Z,14.20
2023-05-12T02:24:51.710Z,14.20
2023-05-12T02:27:19.879Z,14.20
2023-05-12T02:29:48.046Z,14.20
2023-05-12T02:32:16.135Z,14.21
2023-05-12T02:34:44.307Z,14.22
2023-05-12T02:37:13.763Z,14.22
2023-05-12T02:39:41.833Z,14.21
2023-05-12T02:42:09.907Z,14.23
2023-05-12T02:44:38.012Z,14.25
2023-05-12T02:47:06.708Z,14.27
2023-05-12T02:49:34.753Z,14.28
2023-05-12T02:52:02.876Z,14.29
2023-05-12T02:54:32.352Z,14.30
2023-05-12T02:57:01.902Z,14.29
2023-05-12T02:59:30.709Z,14.30
2023-05-12T03:01:58.818Z,14.30
2023-05-12T03:04:26.953Z,14.28
2023-05-12T03:06:55.072Z,14.25
2023-05-12T03:09:23.697Z,14.22
2023-05-12T03:11:53.114Z,14.19
2023-05-12T03:14:21.405Z,14.15
2023-05-12T03:16:49.535Z,14.16
2023-05-12T03:19:17.688Z,14.13
2023-05-12T03:21:45.798Z,14.12
2023-05-12T03:24:13.919Z,14.12
2023-05-12T03:26:42.113Z,14.14
2023-05-12T03:29:11.734Z,14.09
2023-05-12T03:31:39.872Z,14.08
2023-05-12T03:34:07.978Z,14.07
2023-05-12T03:36:37.281Z,14.06
2023-05-12T03:39:05.628Z,14.03
2023-05-12T03:41:33.731Z,14.05
2023-05-12T03:44:01.816Z,14.03
2023-05-12T03:46:31.405Z,14.04
2023-05-12T03:48:59.817Z,14.03
2023-05-12T03:51:28.319Z,14.01
2023-05-12T03:53:56.389Z,14.01
2023-05-12T03:56:24.496Z,14.04
2023-05-12T03:58:52.654Z,14.05
2023-05-12T04:01:20.712Z,14.07
2023-05-12T04:03:50.393Z,14.11
2023-05-12T04:06:18.602Z,14.17
2023-05-12T04:08:46.689Z,14.21
2023-05-12T04:11:15.114Z,14.23
2023-05-12T04:13:43.218Z,14.24
2023-05-12T04:16:11.334Z,14.26
2023-05-12T04:18:39.607Z,14.31
2023-05-12T04:21:09.141Z,14.35
2023-05-12T04:23:37.235Z,14.39
2023-05-12T04:26:06.031Z,14.45
2023-05-12T04:28:34.168Z,14.50
2023-05-12T04:31:05.424Z,14.55
2023-05-12T04:33:33.590Z,14.60
2023-05-12T04:36:01.753Z,14.63
2023-05-12T04:38:31.283Z,14.67
2023-05-12T04:41:00.173Z,14.76
2023-05-12T04:46:00.340Z,14.84
2023-05-12T04:48:29.046Z,14.86
2023-05-12T04:50:57.166Z,14.88
2023-05-12T04:53:25.248Z,14.92
2023-05-12T04:55:56.537Z,14.99
2023-05-12T04:58:24.680Z,15.08
2023-05-12T05:00:52.997Z,15.20
2023-05-12T05:03:21.357Z,15.31
2023-05-12T05:05:50.057Z,15.42
2023-05-12T05:08:18.483Z,15.49
2023-05-12T05:10:46.645Z,15.56
2023-05-12T05:13:16.526Z,15.66
2023-05-12T05:15:51.080Z,15.79
2023-05-12T05:18:21.061Z,15.85
2023-05-12T05:20:57.329Z,15.92
2023-05-12T05:23:26.885Z,16.02
2023-05-12T05:25:54.961Z,16.14
2023-05-12T05:28:24.464Z,16.25
2023-05-12T05:30:52.727Z,16.35
2023-05-12T05:33:21.285Z,16.45
2023-05-12T05:35:49.357Z,16.49
2023-05-12T05:38:17.512Z,16.57
2023-05-12T05:40:53.130Z,16.66
2023-05-12T05:43:22.141Z,16.77
2023-05-12T05:45:52.040Z,16.88
2023-05-12T05:48:20.238Z,16.95
2023-05-12T05:50:48.380Z,17.06
2023-05-12T05:53:18.336Z,17.20
2023-05-12T05:55:46.632Z,17.33
2023-05-12T05:58:15.260Z,17.45
2023-05-12T06:00:43.548Z,17.58
2023-05-12T06:03:13.080Z,17.71
2023-05-12T06:05:42.207Z,17.77
2023-05-12T06:08:13.175Z,17.81
2023-05-12T06:10:42.088Z,17.87
2023-05-12T06:13:10.341Z,17.93
2023-05-12T06:15:38.629Z,17.97
2023-05-12T06:18:06.972Z,18.01
2023-05-12T06:20:36.436Z,18.08
2023-05-12T06:23:04.558Z,18.09
2023-05-12T06:25:33.514Z,18.11
2023-05-12T06:28:01.671Z,18.17
2023-05-12T06:30:29.749Z,18.23
2023-05-12T06:32:57.980Z,18.32
2023-05-12T06:35:26.198Z,18.41
2023-05-12T06:37:55.661Z,18.43
2023-05-12T06:40:23.735Z,18.44
2023-05-12T06:42:51.885Z,18.50
2023-05-12T06:45:20.334Z,18.56
2023-05-12T06:47:48.661Z,18.59
2023-05-12T06:50:17.506Z,18.65
2023-05-12T06:52:45.727Z,18.69
2023-05-12T06:55:19.895Z,18.76
2023-05-12T06:57:48.263Z,18.81
2023-05-12T07:00:16.995Z,18.90
2023-05-12T07:02:45.166Z,19.05
2023-05-12T07:05:13.437Z,19.19
2023-05-12T07:07:41.498Z,19.34
2023-05-12T07:10:10.343Z,19.52
2023-05-12T07:12:39.868Z,19.69
2023-05-12T07:15:09.701Z,19.88
2023-05-12T07:17:37.865Z,20.15
2023-05-12T07:20:07.161Z,20.43
2023-05-12T07:22:36.622Z,20.66
2023-05-12T07:25:08.039Z,21.03
2023-05-12T07:27:36.241Z,21.31
2023-05-12T07:30:06.778Z,21.26
2023-05-12T07:32:34.878Z,21.18
2023-05-12T07:35:03.645Z,21.28
2023-05-12T07:37:32.511Z,21.73
2023-05-12T07:40:00.579Z,21.99
2023-05-12T07:42:28.697Z,22.12
2023-05-12T07:44:56.848Z,22.25
2023-05-12T07:47:26.354Z,22.58
2023-05-12T07:49:54.495Z,22.86
2023-05-12T07:52:22.595Z,23.05
2023-05-12T07:54:50.791Z,23.26
2023-05-12T07:57:18.906Z,23.50
2023-05-12T07:59:46.991Z,23.71
2023-05-12T08:02:17.167Z,23.96
2023-05-12T08:04:46.677Z,24.18
2023-05-12T08:07:15.724Z,24.32
2023-05-12T08:09:43.821Z,24.49
2023-05-12T08:12:12.174Z,24.62
2023-05-12T08:14:40.264Z,24.90
2023-05-12T08:17:08.375Z,25.10
2023-05-12T08:19:36.461Z,25.36
2023-05-12T08:22:06.055Z,25.50
2023-05-12T08:24:37.122Z,25.56
2023-05-12T08:27:05.404Z,25.48
2023-05-12T08:29:33.486Z,25.58
2023-05-12T08:32:01.715Z,25.71
2023-05-12T08:34:29.851Z,25.82
2023-05-12T08:36:57.997Z,25.90
2023-05-12T08:39:30.922Z,25.88
2023-05-12T08:42:09.320Z,25.89
2023-05-12T08:44:38.655Z,25.97
2023-05-12T08:47:07.759Z,26.10
2023-05-12T08:49:38.793Z,26.19
2023-05-12T08:52:08.897Z,26.18
2023-05-12T08:54:48.578Z,26.19
2023-05-12T08:57:21.679Z,26.20
2023-05-12T08:59:50.027Z,26.16
2023-05-12T09:02:18.492Z,26.13
2023-05-12T09:04:46.688Z,26.00
2023-05-12T09:07:14.929Z,25.81
2023-05-12T09:09:45.614Z,25.79
2023-05-12T09:12:16.837Z,25.87
2023-05-12T09:14:46.319Z,26.05
2023-05-12T09:17:14.532Z,26.18
2023-05-12T09:19:42.643Z,26.24
2023-05-12T09:22:14.784Z,26.15
2023-05-12T09:24:44.372Z,26.24
2023-05-12T09:27:12.516Z,26.34
2023-05-12T09:29:59.303Z,26.48
2023-05-12T09:32:32.484Z,26.34
2023-05-12T09:35:04.052Z,26.28
2023-05-12T09:37:32.907Z,26.33
2023-05-12T09:40:02.770Z,26.33
2023-05-12T09:42:32.136Z,26.30
2023-05-12T09:45:04.184Z,26.37
2023-05-12T09:47:37.582Z,26.43
2023-05-12T09:50:07.216Z,26.43
2023-05-12T09:52:38.727Z,26.37
2023-05-12T09:55:11.311Z,26.26
2023-05-12T09:57:41.463Z,26.25
2023-05-12T10:00:21.087Z,26.23
2023-05-12T10:02:59.753Z,26.21
2023-05-12T10:05:29.042Z,26.08
2023-05-12T10:07:58.817Z,26.00
2023-05-12T10:10:29.220Z,26.07
2023-05-12T10:12:57.474Z,26.22
2023-05-12T10:15:25.874Z,26.29
2023-05-12T10:17:55.335Z,26.37
2023-05-12T10:20:24.072Z,26.52
2023-05-12T10:22:52.981Z,26.35
2023-05-12T10:25:22.315Z,26.23
2023-05-12T10:27:53.025Z,26.11
2023-05-12T10:30:21.696Z,26.07
2023-05-12T10:32:50.834Z,26.19
2023-05-12T10:35:19.130Z,26.28
2023-05-12T10:37:48.191Z,26.19
2023-05-12T10:40:24.908Z,26.10
2023-05-12T10:42:58.785Z,26.19
2023-05-12T10:45:26.952Z,26.26
2023-05-12T10:48:06.149Z,26.34
2023-05-12T10:50:34.592Z,26.35
2023-05-12T10:53:02.677Z,26.40
2023-05-12T10:55:35.847Z,26.49
2023-05-12T10:58:12.305Z,26.53
2023-05-12T11:00:51.802Z,26.51
2023-05-12T11:03:27.417Z,26.35
2023-05-12T11:06:01.094Z,26.30
2023-05-12T11:08:30.519Z,26.33
2023-05-12T11:10:59.195Z,26.38
2023-05-12T11:13:29.809Z,26.45
2023-05-12T11:15:58.508Z,26.51
2023-05-12T11:18:26.839Z,26.59
2023-05-12T11:20:54.948Z,26.69
2023-05-12T11:23:27.324Z,26.87
2023-05-12T11:25:55.742Z,27.03
2023-05-12T11:28:23.880Z,27.02
2023-05-12T11:30:55.388Z,26.92
2023-05-12T11:33:24.314Z,26.78
2023-05-12T11:35:52.522Z,26.67
2023-05-12T11:38:24.349Z,26.50
2023-05-12T11:40:52.542Z,26.48
2023-05-12T11:43:21.803Z,26.52
2023-05-12T11:45:50.562Z,26.63
2023-05-12T11:48:21.595Z,26.84
2023-05-12T11:50:51.317Z,26.84
2023-05-12T11:53:19.971Z,26.88
2023-05-12T11:55:52.149Z,26.86
2023-05-12T11:58:22.359Z,26.83
2023-05-12T12:00:50.656Z,26.74
2023-05-12T12:03:20.892Z,26.68
2023-05-12T12:05:59.469Z,26.64
2023-05-12T12:08:27.611Z,26.55
2023-05-12T12:10:55.857Z,26.53
2023-05-12T12:13:25.210Z,26.39
2023-05-12T12:15:53.850Z,26.26
2023-05-12T12:18:23.733Z,26.16
2023-05-12T12:20:51.812Z,26.12
2023-05-12T12:23:19.931Z,26.22
2023-05-12T12:25:48.099Z,26.24
2023-05-12T12:28:16.356Z,26.25
2023-05-12T12:30:44.455Z,26.18
2023-05-12T12:33:13.025Z,26.05
2023-05-12T12:35:42.529Z,25.92
2023-05-12T12:38:10.633Z,25.81
2023-05-12T12:40:38.713Z,25.75
2023-05-12T12:43:06.878Z,25.70
2023-05-12T12:45:35.098Z,25.70
2023-05-12T12:48:03.238Z,25.61
2023-05-12T12:50:32.352Z,25.52
2023-05-12T12:53:01.889Z,25.51
2023-05-12T12:55:29.979Z,25.64
2023-05-12T12:57:58.053Z,25.58
2023-05-12T13:00:26.949Z,25.53
2023-05-12T13:02:55.302Z,25.45
2023-05-12T13:05:23.495Z,25.44
2023-05-12T13:07:52.444Z,25.51
2023-05-12T13:10:22.101Z,25.49
2023-05-12T13:12:50.204Z,25.43
2023-05-12T13:15:19.474Z,25.35
2023-05-12T13:17:47.889Z,25.22
2023-05-12T13:20:16.516Z,25.14
2023-05-12T13:22:45.425Z,25.17
2023-05-12T13:25:13.521Z,25.09
2023-05-12T13:27:43.053Z,25.10
2023-05-12T13:30:13.478Z,25.09
2023-05-12T13:32:42.346Z,25.04
2023-05-12T13:35:11.166Z,24.97
2023-05-12T13:37:39.291Z,24.92
2023-05-12T13:40:09.252Z,24.91
2023-05-12T13:42:37.756Z,25.00
2023-05-12T13:45:09.160Z,25.09
2023-05-12T13:47:37.856Z,25.04
2023-05-12T13:50:07.479Z,25.04
2023-05-12T13:52:35.701Z,24.94
2023-05-12T13:55:04.300Z,24.93
2023-05-12T13:57:32.408Z,24.82
2023-05-12T14:00:00.851Z,24.73
2023-05-12T14:02:30.387Z,24.72
2023-05-12T14:04:58.740Z,24.72
2023-05-12T14:07:26.932Z,24.61
2023-05-12T14:09:55.087Z,24.47
2023-05-12T14:12:23.273Z,24.34
2023-05-12T14:14:51.415Z,24.28
2023-05-12T14:17:19.575Z,24.17
2023-05-12T14:19:49.037Z,24.07
2023-05-12T14:22:25.409Z,23.93
2023-05-12T14:24:55.779Z,23.85
2023-05-12T14:27:23.957Z,23.67
2023-05-12T14:29:52.256Z,23.53
2023-05-12T14:32:20.520Z,23.37
2023-05-12T14:34:50.019Z,23.27
2023-05-12T14:37:18.327Z,23.10
2023-05-12T14:39:46.622Z,22.96
2023-05-12T14:42:14.841Z,22.87
2023-05-12T14:44:42.955Z,22.70
2023-05-12T14:47:11.068Z,22.50
2023-05-12T14:49:39.172Z,22.32
2023-05-12T14:52:08.778Z,22.23
2023-05-12T14:54:37.641Z,22.16
2023-05-12T14:57:05.908Z,22.08
2023-05-12T14:59:33.991Z,22.00
2023-05-12T15:02:02.091Z,21.89
2023-05-12T15:04:30.613Z,21.82
2023-05-12T15:06:58.699Z,21.77
2023-05-12T15:09:28.144Z,21.73
2023-05-12T15:11:56.490Z,21.66
2023-05-12T15:16:57.561Z,21.51
2023-05-12T15:19:25.770Z,21.50
2023-05-12T15:21:53.827Z,21.49
2023-05-12T15:24:21.950Z,21.52
2023-05-12T15:26:51.387Z,21.52
2023-05-12T15:29:19.446Z,21.52
2023-05-12T15:31:48.778Z,21.49
2023-05-12T15:34:17.212Z,21.42
2023-05-12T15:36:45.733Z,21.37
2023-05-12T15:39:13.792Z,21.36
2023-05-12T15:41:41.884Z,21.33
2023-05-12T15:44:11.404Z,21.27
2023-05-12T15:46:39.530Z,21.22
2023-05-12T15:49:07.645Z,21.22
2023-05-12T15:51:36.458Z,21.23
2023-05-12T15:54:06.393Z,21.21
2023-05-12T15:56:35.201Z,21.21
2023-05-12T15:59:05.188Z,21.20
2023-05-12T16:01:34.855Z,21.16
2023-05-12T16:04:03.145Z,21.09
2023-05-12T16:06:31.329Z,21.03
2023-05-12T16:08:59.415Z,20.95
2023-05-12T16:11:28.324Z,20.88
2023-05-12T16:13:57.203Z,20.83
2023-05-12T16:16:25.384Z,20.81
2023-05-12T16:18:54.979Z,20.77
2023-05-12T16:21:23.153Z,20.76
2023-05-12T16:23:51.333Z,20.70
2023-05-12T16:26:20.126Z,20.68
2023-05-12T16:28:48.249Z,20.62
2023-05-12T16:31:18.774Z,20.57
2023-05-12T16:33:46.980Z,20.55
2023-05-12T16:36:17.786Z,20.52
2023-05-12T16:38:46.678Z,20.48
2023-05-12T16:41:14.961Z,20.54
2023-05-12T16:43:43.040Z,20.63
2023-05-12T16:46:11.570Z,20.66
2023-05-12T16:48:39.874Z,20.65
2023-05-12T16:51:09.105Z,20.63
2023-05-12T16:53:38.864Z,20.69
2023-05-12T16:56:07.734Z,21.14
2023-05-12T16:58:36.299Z,21.48
2023-05-12T17:01:05.426Z,21.40
2023-05-12T17:03:33.708Z,21.12
2023-05-12T17:06:01.832Z,20.80
2023-05-12T17:08:29.959Z,20.55
2023-05-12T17:10:59.424Z,20.34
2023-05-12T17:13:27.461Z,20.15
2023-05-12T17:15:55.678Z,20.01
2023-05-12T17:18:24.727Z,19.86
2023-05-12T17:20:52.894Z,19.70
2023-05-12T17:23:21.558Z,19.57
2023-05-12T17:25:49.680Z,19.50
2023-05-12T17:28:19.393Z,19.44
2023-05-12T17:30:48.066Z,19.37
2023-05-12T17:33:16.454Z,19.32
2023-05-12T17:35:50.829Z,19.24
2023-05-12T17:38:27.734Z,19.18
2023-05-12T17:40:55.875Z,19.11
2023-05-12T17:43:25.601Z,19.03
2023-05-12T17:45:53.700Z,18.99
2023-05-12T17:48:21.866Z,18.96
2023-05-12T17:50:49.950Z,18.91
2023-05-12T17:53:17.998Z,18.88
2023-05-12T17:55:46.196Z,18.78
2023-05-12T17:58:14.264Z,18.70
2023-05-12T18:00:43.803Z,18.59
2023-05-12T18:03:12.176Z,18.49
2023-05-12T18:05:40.536Z,18.41
2023-05-12T18:08:08.999Z,18.33
2023-05-12T18:10:37.318Z,18.23
2023-05-12T18:13:05.377Z,18.15
2023-05-12T18:15:33.461Z,18.10
2023-05-12T18:18:03.046Z,18.01
2023-05-12T18:20:31.240Z,17.94
2023-05-12T18:22:59.391Z,17.86
2023-05-12T18:25:27.506Z,17.79
2023-05-12T18:27:55.569Z,17.70
2023-05-12T18:30:23.706Z,17.61
2023-05-12T18:32:51.885Z,17.53
2023-05-12T18:35:21.862Z,17.45
2023-05-12T18:37:50.180Z,17.35
2023-05-12T18:40:18.320Z,17.27
2023-05-12T18:42:46.369Z,17.21
2023-05-12T18:45:14.477Z,17.16
2023-05-12T18:47:42.655Z,17.08
2023-05-12T18:50:11.567Z,17.01
2023-05-12T18:52:41.181Z,16.94
2023-05-12T18:55:09.706Z,16.88
2023-05-12T18:57:37.824Z,16.80
2023-05-12T19:00:07.278Z,16.73
2023-05-12T19:02:35.686Z,16.64
2023-05-12T19:05:03.946Z,16.53
2023-05-12T19:07:32.053Z,16.43
2023-05-12T19:10:01.531Z,16.32
2023-05-12T19:12:29.655Z,16.25
2023-05-12T19:14:57.757Z,16.16
2023-05-12T19:17:25.961Z,16.08
2023-05-12T19:19:54.048Z,15.98
2023-05-12T19:22:23.470Z,15.92
2023-05-12T19:24:51.874Z,15.86
2023-05-12T19:27:21.282Z,15.80
2023-05-12T19:29:49.638Z,15.72
2023-05-12T19:32:18.111Z,15.63
2023-05-12T19:34:46.234Z,15.54
2023-05-12T19:37:14.494Z,15.47
2023-05-12T19:39:42.543Z,15.38
2023-05-12T19:42:10.586Z,15.32
2023-05-12T19:44:40.061Z,15.25
2023-05-12T19:47:08.688Z,15.20
2023-05-12T19:49:37.030Z,15.15
2023-05-12T19:52:06.739Z,15.09
2023-05-12T19:54:34.859Z,15.03
2023-05-12T19:57:03.038Z,14.96
2023-05-12T19:59:31.110Z,14.91
2023-05-12T20:02:00.602Z,14.82
2023-05-12T20:04:28.710Z,14.78
2023-05-12T20:06:57.402Z,14.72
2023-05-12T20:09:26.184Z,14.66
2023-05-12T20:11:54.323Z,14.60
2023-05-12T20:14:22.420Z,14.53
2023-05-12T20:16:50.594Z,14.46
2023-05-12T20:19:20.092Z,14.40
2023-05-12T20:21:48.170Z,14.35
2023-05-12T20:24:16.294Z,14.32
2023-05-12T20:26:44.345Z,14.27
2023-05-12T20:29:12.426Z,14.23
2023-05-12T20:31:40.558Z,14.18
2023-05-12T20:34:08.768Z,14.13
2023-05-12T20:36:38.227Z,14.10
2023-05-12T20:39:07.882Z,14.08
2023-05-12T20:41:35.950Z,14.00
2023-05-12T20:44:04.708Z,13.95
2023-05-12T20:46:33.985Z,13.92
2023-05-12T20:49:03.843Z,13.87
2023-05-12T20:51:32.397Z,13.82
2023-05-12T20:54:01.931Z,13.79
2023-05-12T20:56:30.005Z,13.73
2023-05-12T20:58:58.440Z,13.70
2023-05-12T21:01:26.552Z,13.66
2023-05-12T21:03:54.686Z,13.59
2023-05-12T21:06:22.790Z,13.51
2023-05-12T21:08:50.867Z,13.49
2023-05-12T21:11:20.318Z,13.45
2023-05-12T21:13:48.480Z,13.39
2023-05-12T21:16:16.765Z,13.37
2023-05-12T21:18:45.023Z,13.33
2023-05-12T21:21:13.219Z,13.30
2023-05-12T21:23:41.279Z,13.25
2023-05-12T21:26:10.467Z,13.21
2023-05-12T21:28:39.944Z,13.17
2023-05-12T21:31:08.054Z,13.13
2023-05-12T21:33:36.142Z,13.09
2023-05-12T21:36:04.505Z,13.04
2023-05-12T21:38:32.974Z,13.04
2023-05-12T21:41:01.190Z,13.01
2023-05-12T21:43:29.251Z,12.97
2023-05-12T21:46:02.388Z,12.91
2023-05-12T21:48:30.569Z,12.88
2023-05-12T21:50:59.954Z,12.85
2023-05-12T21:53:28.256Z,12.82
2023-05-12T21:55:56.653Z,12.78
2023-05-12T21:58:24.773Z,12.73
2023-05-12T22:00:53.340Z,12.70
2023-05-12T22:03:25.117Z,12.68
2023-05-12T22:05:53.383Z,12.65
2023-05-12T22:08:21.579Z,12.63
2023-05-12T22:10:49.673Z,12.61
2023-05-12T22:13:17.791Z,12.58
2023-05-12T22:15:45.872Z,12.55
2023-05-12T22:18:13.953Z,12.53
2023-05-12T22:20:43.523Z,12.51
2023-05-12T22:23:11.564Z,12.46
2023-05-12T22:25:39.659Z,12.42
2023-05-12T22:28:07.758Z,12.37
2023-05-12T22:30:35.866Z,12.34
2023-05-12T22:33:03.974Z,12.30
2023-05-12T22:35:32.091Z,12.26
2023-05-12T22:38:01.696Z,12.22
2023-05-12T22:40:30.675Z,12.19
2023-05-12T22:42:58.728Z,12.17
2023-05-12T22:45:26.893Z,12.14
2023-05-12T22:47:55.153Z,12.12
2023-05-12T22:50:23.791Z,12.10
2023-05-12T22:52:56.956Z,12.08
2023-05-12T22:55:28.250Z,12.07
2023-05-12T22:57:56.301Z,12.04
2023-05-12T23:00:24.549Z,12.01
2023-05-12T23:02:52.685Z,12.01
2023-05-12T23:05:21.014Z,11.99
2023-05-12T23:07:49.133Z,11.98
2023-05-12T23:10:17.330Z,11.96
2023-05-12T23:12:46.740Z,11.93
2023-05-12T23:15:14.779Z,11.90
2023-05-12T23:17:42.875Z,11.87
2023-05-12T23:20:11.480Z,11.82
2023-05-12T23:22:39.495Z,11.81
2023-05-12T23:25:08.387Z,11.75
2023-05-12T23:27:36.945Z,11.71
2023-05-12T23:30:07.832Z,11.65
2023-05-12T23:32:36.067Z,11.59
2023-05-12T23:35:04.590Z,11.57
2023-05-12T23:37:32.666Z,11.53
2023-05-12T23:40:00.796Z,11.49
2023-05-12T23:42:29.022Z,11.47
2023-05-12T23:44:57.111Z,11.44
2023-05-12T23:47:26.829Z,11.42
2023-05-12T23:49:54.976Z,11.36
2023-05-12T23:52:23.042Z,11.30
2023-05-12T23:54:51.148Z,11.24
2023-05-12T23:57:19.216Z,11.21
2023-05-12T23:59:47.288Z,11.18
